In Rescue
 
Open Full Screen Window  High Contrast Mode
Wind Gusting 16 knots
10
July 24, 2024 5:59 PM EDT
Weather Information
Wind Direction
  300 °
Wind Speed
  10 kt (12 mph)
Wind Gust
  16 kt (18 mph)
Variable Wind
280°
340°
Altimeter
30.12 in
Visibility
10 SM
Temperature
24° C
75° F
Dewpoint
14° C
57° F
Humidity
54%
1hr Rain Fall
00.00 in.
24hr Rain Fall
00.48 in.
Sky Condition
Broken @ 5,000 ft
Scattered @ 4,600 ft
Scattered @ 3,500 ft
VFR

METAR KRQB 242159Z AUTO 30010G16KT 280V340 10SM SCT035 SCT046 BKN050 24/14 A3012 RMK AO2 T02360137

FAA Disclaimer: The data displayed is for advisory purposes only and is not to be used for flight planning or operations.